createdAt,value
2017-09-22T11:26:20.290Z,475
2017-09-22T11:26:32.961Z,470
2017-09-22T11:26:45.948Z,470
2017-09-22T11:26:59.510Z,465
2017-09-22T11:27:12.441Z,465
2017-09-22T11:27:24.882Z,465
2017-09-22T11:27:37.833Z,465
2017-09-22T11:27:51.375Z,465
2017-09-22T11:28:04.948Z,465
2017-09-22T11:28:17.458Z,465
2017-09-22T11:28:30.996Z,470
2017-09-22T11:28:43.421Z,460
2017-09-22T11:28:55.900Z,460
2017-09-22T11:29:08.398Z,455
2017-09-22T11:29:21.345Z,450
2017-09-22T11:29:34.882Z,450
2017-09-22T11:29:48.450Z,445
2017-09-22T11:30:01.697Z,440
2017-09-22T11:30:14.684Z,440
2017-09-22T11:30:27.121Z,435
2017-09-22T11:30:40.089Z,425
2017-09-22T11:30:53.064Z,415
2017-09-22T11:31:05.504Z,415
2017-09-22T11:31:17.927Z,410
2017-09-22T11:31:31.413Z,400
2017-09-22T11:31:44.380Z,395
2017-09-22T11:31:57.898Z,395
2017-09-22T11:32:10.326Z,390
2017-09-22T11:32:22.719Z,385
2017-09-22T11:32:35.698Z,380
2017-09-22T11:32:48.761Z,385
2017-09-22T11:33:01.764Z,380
2017-09-22T11:33:14.753Z,380
2017-09-22T11:33:27.196Z,380
2017-09-22T11:33:40.154Z,380
2017-09-22T11:33:53.677Z,380
2017-09-22T11:34:05.520Z,380
2017-09-22T11:34:17.989Z,380
2017-09-22T11:34:31.548Z,380
2017-09-22T11:34:43.993Z,380
2017-09-22T11:34:57.492Z,380
2017-09-22T11:35:11.013Z,380
2017-09-22T11:35:23.993Z,380
2017-09-22T11:35:36.973Z,380
2017-09-22T11:35:50.460Z,380
2017-09-22T11:36:02.979Z,380
2017-09-22T11:36:16.221Z,380
2017-09-22T11:36:29.762Z,385
2017-09-22T11:36:42.734Z,380
2017-09-22T11:36:56.280Z,380
2017-09-22T11:37:09.840Z,380
2017-09-22T11:37:23.373Z,385
2017-09-22T11:37:36.898Z,385
2017-09-22T11:37:49.890Z,385
2017-09-22T11:38:03.418Z,385
2017-09-22T11:38:16.941Z,385
2017-09-22T11:38:30.005Z,385
2017-09-22T11:38:42.966Z,385
2017-09-22T11:38:56.538Z,385
2017-09-22T11:39:10.039Z,385
2017-09-22T11:39:23.509Z,385
2017-09-22T11:39:36.466Z,385
2017-09-22T11:39:49.487Z,385
2017-09-22T11:40:02.984Z,385
2017-09-22T11:40:16.010Z,385
2017-09-22T11:40:29.471Z,385
2017-09-22T11:40:43.015Z,385
2017-09-22T11:40:55.979Z,385
2017-09-22T11:41:09.010Z,385
2017-09-22T11:41:22.453Z,385
2017-09-22T11:41:34.936Z,385
2017-09-22T11:41:48.478Z,385
2017-09-22T11:42:01.418Z,385
2017-09-22T11:42:13.904Z,385
2017-09-22T11:42:27.450Z,385
2017-09-22T11:42:39.897Z,385
2017-09-22T11:42:53.384Z,385
2017-09-22T11:43:06.406Z,385
2017-09-22T11:43:19.938Z,385
2017-09-22T11:43:33.458Z,385
2017-09-22T11:43:46.423Z,385
2017-09-22T11:43:58.925Z,385
2017-09-22T11:44:11.861Z,385
2017-09-22T11:44:24.875Z,385
2017-09-22T11:44:37.343Z,385
2017-09-22T11:44:49.773Z,385
2017-09-22T11:45:01.669Z,385
2017-09-22T11:45:14.117Z,385
2017-09-22T11:45:27.109Z,385
2017-09-22T11:45:40.197Z,385
2017-09-22T11:45:53.733Z,385
2017-09-22T11:46:06.653Z,385
2017-09-22T11:46:20.096Z,385
2017-09-22T11:46:33.050Z,385
2017-09-22T11:46:46.107Z,390
2017-09-22T11:46:59.646Z,385
2017-09-22T11:47:12.640Z,385
2017-09-22T11:47:26.168Z,385
2017-09-22T11:47:39.153Z,385
2017-09-22T11:47:51.827Z,385
2017-09-22T11:48:04.799Z,385
2017-09-22T11:48:17.252Z,385
2017-09-22T11:48:30.710Z,385
2017-09-22T11:48:44.225Z,385
2017-09-22T11:48:57.706Z,385
2017-09-22T11:49:11.243Z,385
2017-09-22T11:49:24.467Z,385
2017-09-22T11:49:37.391Z,385
2017-09-22T11:49:50.390Z,385
2017-09-22T11:50:03.351Z,390
2017-09-22T11:50:16.401Z,390
2017-09-22T11:50:29.853Z,390
2017-09-22T11:50:43.338Z,390
2017-09-22T11:50:56.308Z,390
2017-09-22T11:51:09.802Z,390
2017-09-22T11:51:21.960Z,390
2017-09-22T11:51:35.545Z,390
2017-09-22T11:51:47.952Z,390
2017-09-22T11:52:01.471Z,390
2017-09-22T11:52:14.445Z,390
2017-09-22T11:52:27.965Z,390
2017-09-22T11:52:40.922Z,395
2017-09-22T11:52:54.527Z,390
2017-09-22T11:53:07.531Z,395
2017-09-22T11:53:20.991Z,390
2017-09-22T11:53:34.477Z,390
2017-09-22T11:53:48.025Z,395
2017-09-22T11:54:01.476Z,395
2017-09-22T11:54:14.431Z,390
2017-09-22T11:54:27.482Z,390
2017-09-22T11:54:40.945Z,390
2017-09-22T11:54:53.961Z,395
2017-09-22T11:55:07.467Z,395
2017-09-22T11:55:20.484Z,390
2017-09-22T11:55:33.424Z,390
2017-09-22T11:55:47.049Z,390
2017-09-22T11:56:00.016Z,390
2017-09-22T11:56:13.511Z,390
2017-09-22T11:56:26.470Z,390
2017-09-22T11:56:40.049Z,390
2017-09-22T11:56:53.081Z,390
2017-09-22T11:57:06.133Z,390
2017-09-22T11:57:19.140Z,390
2017-09-22T11:57:32.659Z,390
2017-09-22T11:57:46.274Z,390
2017-09-22T11:57:58.220Z,395
2017-09-22T11:58:11.222Z,390
2017-09-22T11:58:23.686Z,390
2017-09-22T11:58:36.106Z,390
2017-09-22T11:58:49.634Z,390
2017-09-22T11:59:02.705Z,390
2017-09-22T11:59:16.233Z,390
2017-09-22T11:59:29.224Z,390
2017-09-22T11:59:42.173Z,390
2017-09-22T11:59:55.710Z,390
2017-09-22T12:00:08.756Z,390
2017-09-22T12:00:21.705Z,390
2017-09-22T12:00:35.268Z,390
2017-09-22T12:00:47.686Z,390
2017-09-22T12:00:59.604Z,390
2017-09-22T12:01:12.633Z,390
2017-09-22T12:01:26.366Z,390
2017-09-22T12:01:39.861Z,390
2017-09-22T12:01:53.421Z,390
2017-09-22T12:02:06.905Z,390
2017-09-22T12:02:19.900Z,390
2017-09-22T12:02:32.848Z,390
2017-09-22T12:02:45.860Z,390
2017-09-22T12:02:58.820Z,390
2017-09-22T12:03:11.790Z,395
2017-09-22T12:03:24.754Z,390
2017-09-22T12:03:37.769Z,390
2017-09-22T12:03:50.742Z,390
2017-09-22T12:04:04.288Z,390
2017-09-22T12:04:17.308Z,390
2017-09-22T12:04:30.887Z,390
2017-09-22T12:04:44.371Z,390
2017-09-22T12:04:56.825Z,390
2017-09-22T12:05:09.807Z,390
2017-09-22T12:05:22.249Z,390
2017-09-22T12:05:35.368Z,390
2017-09-22T12:05:48.916Z,390
2017-09-22T12:06:01.941Z,390
2017-09-22T12:06:14.942Z,390
2017-09-22T12:06:28.664Z,390
2017-09-22T12:06:41.623Z,390
2017-09-22T12:06:55.205Z,390
2017-09-22T12:07:07.611Z,390
2017-09-22T12:07:20.072Z,390
2017-09-22T12:07:33.524Z,390
2017-09-22T12:07:46.550Z,390
2017-09-22T12:07:58.991Z,390
2017-09-22T12:08:11.938Z,390
2017-09-22T12:08:24.885Z,390
2017-09-22T12:08:37.848Z,390
2017-09-22T12:08:51.308Z,390
2017-09-22T12:09:04.263Z,390
2017-09-22T12:09:17.791Z,390
2017-09-22T12:09:31.375Z,390
2017-09-22T12:09:44.332Z,390
2017-09-22T12:09:57.846Z,390
2017-09-22T12:10:10.843Z,390
2017-09-22T12:10:22.781Z,390
2017-09-22T12:10:36.245Z,390
2017-09-22T12:10:49.797Z,390
2017-09-22T12:11:02.875Z,390
2017-09-22T12:11:15.824Z,390
2017-09-22T12:11:28.855Z,390
2017-09-22T12:11:42.018Z,390
2017-09-22T12:11:54.484Z,390
2017-09-22T12:12:07.448Z,390
2017-09-22T12:12:20.466Z,395
2017-09-22T12:12:33.994Z,395
2017-09-22T12:12:46.456Z,390
2017-09-22T12:12:59.978Z,390
2017-09-22T12:13:13.550Z,390
2017-09-22T12:13:27.191Z,390
2017-09-22T12:13:39.619Z,395
2017-09-22T12:13:52.607Z,390
2017-09-22T12:14:06.158Z,395
2017-09-22T12:14:18.580Z,390
2017-09-22T12:14:32.082Z,390
2017-09-22T12:14:45.048Z,390
2017-09-22T12:14:57.505Z,390
2017-09-22T12:15:10.005Z,390
2017-09-22T12:15:23.597Z,390
2017-09-22T12:15:37.153Z,390
2017-09-22T12:15:50.938Z,390
2017-09-22T12:16:04.496Z,390
2017-09-22T12:16:17.494Z,390
2017-09-22T12:16:30.527Z,390
2017-09-22T12:16:44.127Z,390
2017-09-22T12:16:57.601Z,390
2017-09-22T12:17:11.093Z,395
2017-09-22T12:17:24.573Z,390
2017-09-22T12:17:37.011Z,390
2017-09-22T12:17:49.409Z,390
2017-09-22T12:18:02.930Z,390
2017-09-22T12:18:15.360Z,390
2017-09-22T12:18:28.331Z,390
2017-09-22T12:18:41.265Z,390
2017-09-22T12:18:54.263Z,395
2017-09-22T12:19:07.180Z,395
2017-09-22T12:19:20.754Z,390
2017-09-22T12:19:33.225Z,395
2017-09-22T12:19:46.817Z,390
2017-09-22T12:20:00.322Z,395
2017-09-22T12:20:12.757Z,395
2017-09-22T12:20:25.239Z,390
2017-09-22T12:20:38.288Z,390
2017-09-22T12:20:51.278Z,390
2017-09-22T12:21:04.808Z,390
2017-09-22T12:21:17.801Z,390
2017-09-22T12:21:30.619Z,390
2017-09-22T12:21:43.578Z,390
2017-09-22T12:21:57.110Z,395
2017-09-22T12:22:10.068Z,395
2017-09-22T12:22:23.576Z,395
2017-09-22T12:22:34.962Z,395
2017-09-22T12:22:48.431Z,395
2017-09-22T12:23:02.015Z,400
2017-09-22T12:23:15.016Z,395
2017-09-22T12:23:27.477Z,395
2017-09-22T12:23:40.518Z,395
2017-09-22T12:23:53.480Z,395
2017-09-22T12:24:06.476Z,395
2017-09-22T12:24:19.998Z,395
2017-09-22T12:24:33.485Z,395
2017-09-22T12:24:47.067Z,395
2017-09-22T12:24:59.996Z,390
2017-09-22T12:25:13.019Z,395
2017-09-22T12:25:26.572Z,395
2017-09-22T12:25:39.029Z,395
2017-09-22T12:25:52.001Z,390
2017-09-22T12:26:05.501Z,395
2017-09-22T12:26:18.428Z,395
2017-09-22T12:26:31.907Z,395
2017-09-22T12:26:44.928Z,395
2017-09-22T12:26:57.369Z,395
2017-09-22T12:27:08.771Z,395
2017-09-22T12:27:20.644Z,395
2017-09-22T12:27:33.686Z,395
2017-09-22T12:27:46.635Z,395
2017-09-22T12:28:00.162Z,395
2017-09-22T12:28:13.739Z,395
2017-09-22T12:28:27.257Z,395
2017-09-22T12:28:40.439Z,395
2017-09-22T12:28:53.506Z,390
2017-09-22T12:29:07.040Z,395
2017-09-22T12:29:20.488Z,395
2017-09-22T12:29:32.401Z,395
2017-09-22T12:29:44.285Z,390
2017-09-22T12:29:57.302Z,390
2017-09-22T12:30:10.313Z,390
2017-09-22T12:30:23.836Z,390
2017-09-22T12:30:36.310Z,390
2017-09-22T12:30:49.863Z,395
2017-09-22T12:31:03.355Z,395
2017-09-22T12:31:16.316Z,390
2017-09-22T12:31:29.260Z,390
2017-09-22T12:31:42.477Z,390
2017-09-22T12:31:55.472Z,395
2017-09-22T12:32:08.541Z,395
2017-09-22T12:32:20.919Z,395
2017-09-22T12:32:33.955Z,390
2017-09-22T12:32:47.486Z,390
2017-09-22T12:33:00.512Z,390
2017-09-22T12:33:14.014Z,395
2017-09-22T12:33:26.523Z,390
2017-09-22T12:33:39.481Z,390
2017-09-22T12:33:53.048Z,390
2017-09-22T12:34:06.522Z,390
2017-09-22T12:34:19.573Z,390
2017-09-22T12:34:32.608Z,395
2017-09-22T12:34:45.045Z,390
2017-09-22T12:34:57.457Z,400
2017-09-22T12:35:10.498Z,390
2017-09-22T12:35:23.508Z,390
2017-09-22T12:35:37.062Z,390
2017-09-22T12:35:49.987Z,390
2017-09-22T12:36:03.503Z,390
2017-09-22T12:36:16.976Z,395
2017-09-22T12:36:30.507Z,395
2017-09-22T12:36:44.537Z,390
2017-09-22T12:36:58.100Z,390
2017-09-22T12:37:11.069Z,390
2017-09-22T12:37:24.038Z,390
2017-09-22T12:37:36.484Z,390
2017-09-22T12:37:50.010Z,390
2017-09-22T12:38:03.488Z,390
2017-09-22T12:38:16.456Z,390
2017-09-22T12:38:30.043Z,390
2017-09-22T12:38:43.072Z,390
2017-09-22T12:38:56.571Z,390
2017-09-22T12:39:10.047Z,390
2017-09-22T12:39:23.584Z,390
2017-09-22T12:39:34.981Z,390
2017-09-22T12:39:47.452Z,390
2017-09-22T12:40:00.928Z,390
2017-09-22T12:40:14.497Z,390
2017-09-22T12:40:27.472Z,390
2017-09-22T12:40:39.315Z,390
2017-09-22T12:40:52.386Z,390
2017-09-22T12:41:04.834Z,390
2017-09-22T12:41:17.277Z,390
2017-09-22T12:41:30.222Z,390
2017-09-22T12:41:43.740Z,390
2017-09-22T12:41:56.726Z,390
2017-09-22T12:42:10.248Z,390
2017-09-22T12:42:22.738Z,390
2017-09-22T12:42:35.718Z,385
2017-09-22T12:42:49.238Z,385
2017-09-22T12:43:01.700Z,390
2017-09-22T12:43:15.197Z,390
2017-09-22T12:43:28.199Z,390
2017-09-22T12:43:41.682Z,390
2017-09-22T12:43:54.779Z,390
2017-09-22T12:44:07.733Z,390
2017-09-22T12:44:21.351Z,390
2017-09-22T12:44:34.352Z,390
2017-09-22T12:44:47.344Z,390
2017-09-22T12:44:59.798Z,385
2017-09-22T12:45:12.811Z,390
2017-09-22T12:45:25.813Z,390
2017-09-22T12:45:37.755Z,390
2017-09-22T12:45:50.256Z,390
2017-09-22T12:46:03.742Z,395
2017-09-22T12:46:16.177Z,390
2017-09-22T12:46:29.142Z,395
2017-09-22T12:46:42.716Z,390
2017-09-22T12:46:55.700Z,385
2017-09-22T12:47:08.653Z,390
2017-09-22T12:47:22.257Z,390
2017-09-22T12:47:34.711Z,385
2017-09-22T12:47:47.174Z,390
2017-09-22T12:48:00.157Z,385
2017-09-22T12:48:13.657Z,390
2017-09-22T12:48:27.159Z,385
2017-09-22T12:48:40.121Z,390
2017-09-22T12:48:53.639Z,390
2017-09-22T12:49:07.193Z,390
2017-09-22T12:49:20.706Z,390
2017-09-22T12:49:33.657Z,385
2017-09-22T12:49:46.628Z,390
2017-09-22T12:50:00.165Z,390
2017-09-22T12:50:12.580Z,385
2017-09-22T12:50:25.044Z,385
2017-09-22T12:50:37.475Z,390
2017-09-22T12:50:50.470Z,385
2017-09-22T12:51:02.853Z,390
2017-09-22T12:51:16.440Z,390
2017-09-22T12:51:29.992Z,390
2017-09-22T12:51:42.957Z,385
2017-09-22T12:51:56.432Z,385
2017-09-22T12:52:09.958Z,390
2017-09-22T12:52:22.415Z,385
2017-09-22T12:52:35.906Z,385
2017-09-22T12:52:49.447Z,385
2017-09-22T12:53:02.948Z,385
2017-09-22T12:53:13.748Z,385
2017-09-22T12:53:26.731Z,385
2017-09-22T12:53:39.706Z,385
2017-09-22T12:53:52.674Z,390
2017-09-22T12:54:06.198Z,385
2017-09-22T12:54:19.108Z,390
2017-09-22T12:54:32.156Z,385
2017-09-22T12:54:45.724Z,385
2017-09-22T12:54:59.219Z,385
2017-09-22T12:55:12.729Z,385
2017-09-22T12:55:25.775Z,390
2017-09-22T12:55:39.235Z,385
2017-09-22T12:55:52.255Z,385
2017-09-22T12:56:05.783Z,385
2017-09-22T12:56:18.776Z,385
2017-09-22T12:56:31.749Z,385
2017-09-22T12:56:44.706Z,385
2017-09-22T12:56:58.230Z,385
2017-09-22T12:57:11.213Z,390
2017-09-22T12:57:24.226Z,390
2017-09-22T12:57:37.687Z,390
2017-09-22T12:57:50.697Z,385
2017-09-22T12:58:03.634Z,385
2017-09-22T12:58:16.655Z,385
2017-09-22T12:58:30.209Z,385
2017-09-22T12:58:42.651Z,385
2017-09-22T12:58:55.144Z,385
2017-09-22T12:59:08.091Z,390
2017-09-22T12:59:21.617Z,385
2017-09-22T12:59:36.586Z,385
2017-09-22T12:59:49.003Z,390
2017-09-22T13:00:02.064Z,395
2017-09-22T13:00:15.004Z,390
2017-09-22T13:00:28.010Z,385
2017-09-22T13:00:40.423Z,390
2017-09-22T13:00:52.898Z,385
2017-09-22T13:01:05.875Z,385
2017-09-22T13:01:18.888Z,385
2017-09-22T13:01:32.443Z,385
2017-09-22T13:01:45.932Z,385
2017-09-22T13:01:59.435Z,385
2017-09-22T13:02:12.370Z,390
2017-09-22T13:02:25.363Z,395
2017-09-22T13:02:37.829Z,390
2017-09-22T13:02:50.863Z,385
2017-09-22T13:03:03.839Z,395
2017-09-22T13:03:16.327Z,390
2017-09-22T13:03:29.825Z,395
2017-09-22T13:03:43.380Z,385
2017-09-22T13:03:56.331Z,385
2017-09-22T13:04:09.965Z,385
2017-09-22T13:04:23.493Z,385
2017-09-22T13:04:36.398Z,385
2017-09-22T13:04:49.892Z,385
2017-09-22T13:05:02.876Z,390
2017-09-22T13:05:14.221Z,385
2017-09-22T13:05:27.734Z,390
2017-09-22T13:05:40.689Z,385
2017-09-22T13:05:52.614Z,385
2017-09-22T13:06:05.079Z,385
2017-09-22T13:06:17.499Z,385
2017-09-22T13:06:31.073Z,385
2017-09-22T13:06:43.283Z,385
2017-09-22T13:06:56.814Z,385
2017-09-22T13:07:10.332Z,385
2017-09-22T13:07:23.285Z,385
2017-09-22T13:07:35.752Z,385
2017-09-22T13:07:49.298Z,385
2017-09-22T13:08:02.326Z,385
2017-09-22T13:08:15.245Z,385
2017-09-22T13:08:28.777Z,385
2017-09-22T13:08:42.258Z,385
2017-09-22T13:08:54.177Z,385
2017-09-22T13:09:07.719Z,385
2017-09-22T13:09:20.160Z,385
2017-09-22T13:09:33.137Z,385
2017-09-22T13:09:46.129Z,385
2017-09-22T13:09:59.118Z,385
2017-09-22T13:10:12.047Z,385
2017-09-22T13:10:25.630Z,385
2017-09-22T13:10:39.188Z,385
2017-09-22T13:10:52.710Z,385
2017-09-22T13:11:05.678Z,385
2017-09-22T13:11:19.220Z,385
2017-09-22T13:11:30.640Z,385
2017-09-22T13:11:44.265Z,385
2017-09-22T13:11:56.250Z,385
2017-09-22T13:12:08.655Z,385
2017-09-22T13:12:21.640Z,385
2017-09-22T13:12:34.675Z,385
2017-09-22T13:12:48.188Z,385
2017-09-22T13:13:00.529Z,385
2017-09-22T13:13:12.951Z,385
2017-09-22T13:13:26.485Z,385
2017-09-22T13:13:40.000Z,385
2017-09-22T13:13:53.044Z,385
2017-09-22T13:14:06.557Z,385
2017-09-22T13:14:20.109Z,385
2017-09-22T13:14:32.530Z,385
2017-09-22T13:14:46.054Z,385
2017-09-22T13:14:59.779Z,385
2017-09-22T13:15:12.765Z,385
2017-09-22T13:15:25.186Z,385
2017-09-22T13:15:38.228Z,385
2017-09-22T13:15:51.727Z,385
2017-09-22T13:16:05.992Z,385
2017-09-22T13:16:17.302Z,385
2017-09-22T13:16:30.808Z,385
2017-09-22T13:16:44.363Z,385
2017-09-22T13:16:56.817Z,395
2017-09-22T13:17:09.187Z,385
2017-09-22T13:17:22.725Z,390
2017-09-22T13:17:36.215Z,385
2017-09-22T13:17:49.749Z,385
2017-09-22T13:18:02.722Z,385
2017-09-22T13:18:14.597Z,385
2017-09-22T13:18:27.554Z,385
2017-09-22T13:18:38.904Z,385
2017-09-22T13:18:52.534Z,390
2017-09-22T13:19:05.576Z,385
2017-09-22T13:19:18.047Z,385
2017-09-22T13:19:31.541Z,385
2017-09-22T13:19:44.527Z,385
2017-09-22T13:19:57.563Z,385
2017-09-22T13:20:10.508Z,385
2017-09-22T13:20:23.489Z,385
2017-09-22T13:20:35.966Z,390
2017-09-22T13:20:47.865Z,390
2017-09-22T13:21:00.880Z,390
2017-09-22T13:21:14.351Z,385
2017-09-22T13:21:27.342Z,385
2017-09-22T13:21:40.330Z,385
2017-09-22T13:21:54.038Z,390
2017-09-22T13:22:05.969Z,390
2017-09-22T13:22:19.541Z,395
2017-09-22T13:22:33.085Z,390
2017-09-22T13:22:46.654Z,390
2017-09-22T13:22:59.182Z,390
2017-09-22T13:23:11.582Z,390
2017-09-22T13:23:24.553Z,395
2017-09-22T13:23:37.595Z,385
2017-09-22T13:23:50.062Z,390
2017-09-22T13:24:03.095Z,385
2017-09-22T13:24:16.030Z,390
2017-09-22T13:24:28.444Z,385
2017-09-22T13:24:41.391Z,385
2017-09-22T13:24:53.795Z,385
2017-09-22T13:25:06.772Z,385
2017-09-22T13:25:20.259Z,385
2017-09-22T13:25:33.799Z,385
2017-09-22T13:25:47.306Z,385
2017-09-22T13:26:00.779Z,385
2017-09-22T13:26:13.696Z,390
2017-09-22T13:26:27.207Z,385
2017-09-22T13:26:40.213Z,390
2017-09-22T13:26:53.398Z,385
2017-09-22T13:27:06.352Z,390
2017-09-22T13:27:19.336Z,385
2017-09-22T13:27:31.769Z,385
2017-09-22T13:27:44.271Z,385
2017-09-22T13:27:57.762Z,385
2017-09-22T13:28:10.874Z,385
2017-09-22T13:28:23.292Z,390
2017-09-22T13:28:36.797Z,385
2017-09-22T13:28:48.747Z,385
2017-09-22T13:29:01.185Z,385
2017-09-22T13:29:13.676Z,385
2017-09-22T13:29:26.571Z,385
2017-09-22T13:29:39.057Z,385
2017-09-22T13:29:52.078Z,385
2017-09-22T13:30:03.404Z,390
2017-09-22T13:30:16.896Z,385
2017-09-22T13:30:30.429Z,385
2017-09-22T13:30:42.897Z,385
2017-09-22T13:30:55.350Z,385
2017-09-22T13:31:07.782Z,385
2017-09-22T13:31:20.239Z,385
2017-09-22T13:31:33.209Z,390
2017-09-22T13:31:46.816Z,390
2017-09-22T13:31:59.842Z,390
2017-09-22T13:32:12.879Z,390
2017-09-22T13:32:25.869Z,390
2017-09-22T13:32:38.879Z,390
2017-09-22T13:32:51.829Z,390
2017-09-22T13:33:05.336Z,390
2017-09-22T13:33:17.806Z,390
2017-09-22T13:33:30.800Z,390
2017-09-22T13:33:44.151Z,390
2017-09-22T13:33:56.564Z,395
2017-09-22T13:34:10.141Z,390
2017-09-22T13:34:23.599Z,390
2017-09-22T13:34:37.196Z,390
2017-09-22T13:34:50.713Z,390
2017-09-22T13:35:03.658Z,385
2017-09-22T13:35:17.167Z,390
2017-09-22T13:35:30.197Z,390
2017-09-22T13:35:42.648Z,390
2017-09-22T13:35:55.635Z,390
2017-09-22T13:36:08.085Z,390
2017-09-22T13:36:21.637Z,395
2017-09-22T13:36:34.016Z,390
2017-09-22T13:36:45.960Z,385
2017-09-22T13:36:59.398Z,385
2017-09-22T13:37:13.146Z,385
2017-09-22T13:37:26.698Z,385
2017-09-22T13:37:39.720Z,385
2017-09-22T13:37:52.677Z,390
2017-09-22T13:38:05.662Z,385
2017-09-22T13:38:17.610Z,385
2017-09-22T13:38:30.592Z,385
2017-09-22T13:38:42.522Z,385
2017-09-22T13:38:55.558Z,390
2017-09-22T13:39:09.126Z,390
2017-09-22T13:39:21.560Z,390
2017-09-22T13:39:35.123Z,390
2017-09-22T13:39:48.049Z,390
2017-09-22T13:40:01.561Z,395
2017-09-22T13:40:14.517Z,390
2017-09-22T13:40:27.908Z,390
2017-09-22T13:40:40.954Z,390
2017-09-22T13:40:53.979Z,390
2017-09-22T13:41:06.421Z,390
2017-09-22T13:41:18.828Z,390
2017-09-22T13:41:31.251Z,390
2017-09-22T13:41:43.728Z,390
2017-09-22T13:41:56.153Z,390
2017-09-22T13:42:07.569Z,390
2017-09-22T13:42:21.075Z,390
2017-09-22T13:42:34.690Z,390
2017-09-22T13:42:46.594Z,390
2017-09-22T13:42:59.103Z,390
2017-09-22T13:43:11.511Z,390
2017-09-22T13:43:24.465Z,390
2017-09-22T13:43:36.893Z,390
2017-09-22T13:43:49.337Z,390
2017-09-22T13:44:02.241Z,385
2017-09-22T13:44:14.151Z,385
2017-09-22T13:44:27.702Z,385
2017-09-22T13:44:40.144Z,385
2017-09-22T13:44:53.612Z,385
2017-09-22T13:45:06.643Z,385
2017-09-22T13:45:19.674Z,385
2017-09-22T13:45:32.658Z,385
2017-09-22T13:45:44.590Z,385
2017-09-22T13:45:58.152Z,385
2017-09-22T13:46:11.161Z,385
2017-09-22T13:46:24.713Z,385
2017-09-22T13:46:37.717Z,385
2017-09-22T13:46:50.650Z,385
2017-09-22T13:47:03.608Z,385
2017-09-22T13:47:16.604Z,385
2017-09-22T13:47:30.168Z,385
2017-09-22T13:47:43.197Z,385
2017-09-22T13:47:56.695Z,385
2017-09-22T13:48:09.644Z,385
2017-09-22T13:48:22.705Z,385
2017-09-22T13:48:35.640Z,385
2017-09-22T13:48:48.630Z,385
2017-09-22T13:49:02.137Z,385
2017-09-22T13:49:14.578Z,385
2017-09-22T13:49:26.429Z,385
2017-09-22T13:49:38.908Z,385
2017-09-22T13:49:51.969Z,385
2017-09-22T13:50:04.479Z,385
2017-09-22T13:50:18.078Z,385
2017-09-22T13:50:30.559Z,385
2017-09-22T13:50:43.025Z,385
2017-09-22T13:50:56.531Z,385
2017-09-22T13:51:10.028Z,385
2017-09-22T13:51:23.610Z,385
2017-09-22T13:51:36.597Z,390
2017-09-22T13:51:50.157Z,385
2017-09-22T13:52:02.940Z,385
2017-09-22T13:52:16.857Z,385
2017-09-22T13:52:29.800Z,390
2017-09-22T13:52:42.776Z,390
2017-09-22T13:52:56.306Z,390
2017-09-22T13:53:09.260Z,385
2017-09-22T13:53:22.743Z,390
2017-09-22T13:53:35.753Z,385
2017-09-22T13:53:49.301Z,390
2017-09-22T13:54:02.842Z,390
2017-09-22T13:54:16.463Z,385
2017-09-22T13:54:30.099Z,385
2017-09-22T13:54:43.633Z,385
2017-09-22T13:54:56.605Z,385
2017-09-22T13:55:09.122Z,385
2017-09-22T13:55:21.314Z,390
2017-09-22T13:55:35.035Z,385
2017-09-22T13:55:48.600Z,390
2017-09-22T13:56:01.249Z,385
2017-09-22T13:56:14.267Z,390
2017-09-22T13:56:27.244Z,385
2017-09-22T13:56:40.725Z,385
2017-09-22T13:56:54.304Z,385
2017-09-22T13:57:06.997Z,385
2017-09-22T13:57:20.534Z,390
2017-09-22T13:57:34.054Z,385
2017-09-22T13:57:47.056Z,390
2017-09-22T13:57:59.439Z,385
2017-09-22T13:58:12.402Z,385
2017-09-22T13:58:25.876Z,385
2017-09-22T13:58:38.901Z,385
2017-09-22T13:58:52.371Z,385
2017-09-22T13:59:05.906Z,385
2017-09-22T13:59:18.860Z,385
2017-09-22T13:59:31.842Z,385
2017-09-22T13:59:44.812Z,385
2017-09-22T13:59:58.294Z,385
2017-09-22T14:00:10.683Z,385
2017-09-22T14:00:24.235Z,385
2017-09-22T14:00:37.804Z,385
2017-09-22T14:00:50.503Z,385
2017-09-22T14:01:04.087Z,385
2017-09-22T14:01:17.143Z,385
2017-09-22T14:01:30.600Z,385
2017-09-22T14:01:44.150Z,385
2017-09-22T14:01:57.686Z,385
2017-09-22T14:02:09.133Z,385
2017-09-22T14:02:22.731Z,385
2017-09-22T14:02:36.321Z,385
2017-09-22T14:02:49.861Z,385
2017-09-22T14:03:02.897Z,385
2017-09-22T14:03:14.830Z,390
2017-09-22T14:03:28.335Z,385
2017-09-22T14:03:40.797Z,385
2017-09-22T14:03:53.228Z,390
2017-09-22T14:04:05.698Z,385
2017-09-22T14:04:19.236Z,385
2017-09-22T14:04:31.693Z,385
2017-09-22T14:04:45.158Z,385
2017-09-22T14:04:58.095Z,385
2017-09-22T14:05:11.144Z,390
2017-09-22T14:05:24.629Z,390
2017-09-22T14:05:37.682Z,390
2017-09-22T14:05:50.154Z,390
2017-09-22T14:06:03.661Z,385
2017-09-22T14:06:16.660Z,385
2017-09-22T14:06:29.712Z,390
2017-09-22T14:06:42.174Z,385
2017-09-22T14:06:54.099Z,385
2017-09-22T14:07:07.660Z,390
2017-09-22T14:07:21.146Z,390
2017-09-22T14:07:34.648Z,390
2017-09-22T14:07:47.696Z,385
2017-09-22T14:08:00.143Z,390
2017-09-22T14:08:12.650Z,385
2017-09-22T14:08:25.139Z,390
2017-09-22T14:08:38.671Z,390
2017-09-22T14:08:52.167Z,390
2017-09-22T14:09:05.256Z,390
2017-09-22T14:09:18.240Z,390
2017-09-22T14:09:31.797Z,390
2017-09-22T14:09:44.268Z,390
2017-09-22T14:09:57.245Z,390
2017-09-22T14:10:10.273Z,390
2017-09-22T14:10:22.802Z,390
2017-09-22T14:10:35.881Z,390
2017-09-22T14:10:48.343Z,385
2017-09-22T14:11:01.357Z,390
2017-09-22T14:11:14.400Z,390
2017-09-22T14:11:27.425Z,390
2017-09-22T14:11:40.974Z,385
2017-09-22T14:11:53.375Z,385
2017-09-22T14:12:05.902Z,385
2017-09-22T14:12:19.450Z,390
2017-09-22T14:12:33.012Z,385
2017-09-22T14:12:46.059Z,385
2017-09-22T14:12:59.672Z,390
2017-09-22T14:13:11.615Z,385
2017-09-22T14:13:24.600Z,390
2017-09-22T14:13:37.629Z,385
2017-09-22T14:13:51.196Z,385
2017-09-22T14:14:04.840Z,390
2017-09-22T14:14:18.098Z,390
2017-09-22T14:14:31.822Z,390
2017-09-22T14:14:45.493Z,390
2017-09-22T14:14:58.498Z,390
2017-09-22T14:15:12.125Z,390
2017-09-22T14:15:25.302Z,390
2017-09-22T14:15:39.119Z,390
2017-09-22T14:15:52.724Z,385
2017-09-22T14:16:06.397Z,390
2017-09-22T14:16:19.618Z,385
2017-09-22T14:16:33.484Z,390
2017-09-22T14:16:47.284Z,385
2017-09-22T14:17:00.557Z,390
2017-09-22T14:17:13.804Z,390
2017-09-22T14:17:26.520Z,390
2017-09-22T14:17:39.681Z,385
2017-09-22T14:17:51.758Z,385
2017-09-22T14:18:05.474Z,390
2017-09-22T14:18:19.288Z,385
2017-09-22T14:18:33.139Z,385
2017-09-22T14:18:47.027Z,385
2017-09-22T14:19:00.195Z,390
2017-09-22T14:19:13.986Z,390
2017-09-22T14:19:27.272Z,390
2017-09-22T14:19:40.398Z,390
2017-09-22T14:19:54.009Z,395
2017-09-22T14:20:07.686Z,390
2017-09-22T14:20:21.440Z,390
2017-09-22T14:20:34.640Z,395
2017-09-22T14:20:47.219Z,390
2017-09-22T14:21:00.852Z,390
2017-09-22T14:21:13.929Z,390
2017-09-22T14:21:27.588Z,390
2017-09-22T14:21:41.276Z,390
2017-09-22T14:21:54.396Z,390
2017-09-22T14:22:08.019Z,390
2017-09-22T14:22:21.067Z,390
2017-09-22T14:22:34.085Z,390
2017-09-22T14:22:47.127Z,390
2017-09-22T14:23:00.776Z,390
2017-09-22T14:23:13.832Z,390
2017-09-22T14:23:27.476Z,390
2017-09-22T14:23:41.060Z,390
2017-09-22T14:23:54.133Z,390
2017-09-22T14:24:07.177Z,390
2017-09-22T14:24:20.788Z,390
2017-09-22T14:24:34.440Z,390
2017-09-22T14:24:47.441Z,390
2017-09-22T14:25:00.015Z,390
2017-09-22T14:25:13.623Z,390
2017-09-22T14:25:26.610Z,390
2017-09-22T14:25:39.048Z,390
2017-09-22T14:25:52.151Z,390
2017-09-22T14:26:04.716Z,390